createdAt,value
2023-05-04T00:00:55.971Z,2219.00
2023-05-04T00:01:55.978Z,2240.00
2023-05-04T00:02:56.163Z,2223.00
2023-05-04T00:03:56.275Z,2217.00
2023-05-04T00:04:56.222Z,2199.00
2023-05-04T00:05:56.173Z,2218.00
2023-05-04T00:06:56.232Z,2215.00
2023-05-04T00:07:56.266Z,2213.00
2023-05-04T00:08:56.219Z,2205.00
2023-05-04T00:09:56.254Z,2186.00
2023-05-04T00:10:56.311Z,2150.00
2023-05-04T00:11:56.375Z,2164.00
2023-05-04T00:12:56.509Z,2202.00
2023-05-04T00:13:56.480Z,2181.00
2023-05-04T00:14:56.540Z,2195.00
2023-05-04T00:15:56.609Z,2178.00
2023-05-04T00:16:56.635Z,2193.00
2023-05-04T00:17:56.756Z,2200.00
2023-05-04T00:18:56.751Z,2220.00
2023-05-04T00:19:56.811Z,2209.00
2023-05-04T00:20:56.863Z,2196.00
2023-05-04T00:21:56.946Z,2180.00
2023-05-04T00:22:57.000Z,2137.00
2023-05-04T00:23:57.055Z,2182.00
2023-05-04T00:24:57.109Z,2186.00
2023-05-04T00:25:57.159Z,2154.00
2023-05-04T00:26:57.193Z,2160.00
2023-05-04T00:27:57.219Z,2154.00
2023-05-04T00:28:57.261Z,2176.00
2023-05-04T00:29:57.273Z,2186.00
2023-05-04T00:30:57.314Z,2146.00
2023-05-04T00:31:57.409Z,2127.00
2023-05-04T00:32:57.431Z,2149.00
2023-05-04T00:33:57.384Z,2151.00
2023-05-04T00:34:57.449Z,2142.00
2023-05-04T00:35:57.440Z,2145.00
2023-05-04T00:36:57.485Z,2149.00
2023-05-04T00:37:57.492Z,2152.00
2023-05-04T00:38:57.529Z,2132.00
2023-05-04T00:39:57.575Z,2164.00
2023-05-04T00:40:57.600Z,2155.00
2023-05-04T00:41:57.638Z,2113.00
2023-05-04T00:42:57.674Z,2118.00
2023-05-04T00:43:57.683Z,2107.00
2023-05-04T00:44:57.726Z,2122.00
2023-05-04T00:45:57.772Z,2136.00
2023-05-04T00:46:57.861Z,2127.00
2023-05-04T00:47:57.900Z,2149.00
2023-05-04T00:48:57.936Z,2163.00
2023-05-04T00:49:57.979Z,2118.00
2023-05-04T00:50:58.038Z,2123.00
2023-05-04T00:51:58.099Z,2132.00
2023-05-04T00:52:58.113Z,2136.00
2023-05-04T00:53:58.144Z,2133.00
2023-05-04T00:54:58.162Z,2120.00
2023-05-04T00:55:58.184Z,2139.00
2023-05-04T00:56:58.243Z,2094.00
2023-05-04T00:57:58.257Z,2103.00
2023-05-04T00:58:58.271Z,2089.00
2023-05-04T00:59:58.315Z,2120.00
2023-05-04T01:00:58.376Z,2086.00
2023-05-04T01:01:58.366Z,2095.00
2023-05-04T01:02:58.490Z,2101.00
2023-05-04T01:03:58.418Z,2068.00
2023-05-04T01:04:58.431Z,2095.00
2023-05-04T01:05:58.460Z,2091.00
2023-05-04T01:06:58.548Z,2088.00
2023-05-04T01:07:58.577Z,2108.00
2023-05-04T01:08:58.657Z,2130.00
2023-05-04T01:09:58.715Z,2094.00
2023-05-04T01:10:58.750Z,2077.00
2023-05-04T01:11:58.836Z,2077.00
2023-05-04T01:12:58.925Z,2082.00
2023-05-04T01:13:58.937Z,2082.00
2023-05-04T01:14:58.989Z,2080.00
2023-05-04T01:15:59.049Z,2098.00
2023-05-04T01:16:59.467Z,2058.00
2023-05-04T01:17:59.193Z,2054.00
2023-05-04T01:18:59.222Z,2076.00
2023-05-04T01:19:59.280Z,2047.00
2023-05-04T01:20:59.335Z,2061.00
2023-05-04T01:21:59.392Z,2078.00
2023-05-04T01:22:59.459Z,2091.00
2023-05-04T01:23:59.486Z,2098.00
2023-05-04T01:24:59.565Z,2079.00
2023-05-04T01:25:59.581Z,2088.00
2023-05-04T01:26:59.635Z,2094.00
2023-05-04T01:27:59.623Z,2111.00
2023-05-04T01:28:59.669Z,2095.00
2023-05-04T01:29:59.691Z,2091.00
2023-05-04T01:30:59.756Z,2103.00
2023-05-04T01:31:59.746Z,2078.00
2023-05-04T01:32:59.823Z,2061.00
2023-05-04T01:33:59.778Z,2060.00
2023-05-04T01:34:59.816Z,2071.00
2023-05-04T01:35:59.824Z,2058.00
2023-05-04T01:36:59.884Z,2079.00
2023-05-04T01:37:59.897Z,2081.00
2023-05-04T01:38:59.944Z,2059.00
2023-05-04T01:39:59.955Z,2070.00
2023-05-04T01:40:59.985Z,2068.00
2023-05-04T01:42:00.030Z,2065.00
2023-05-04T01:43:00.080Z,2078.00
2023-05-04T01:44:00.140Z,2072.00
2023-05-04T01:45:00.222Z,2082.00
2023-05-04T01:46:00.287Z,2089.00
2023-05-04T01:47:00.328Z,2078.00
2023-05-04T01:48:00.396Z,2082.00
2023-05-04T01:49:00.436Z,2071.00
2023-05-04T01:50:00.488Z,2070.00
2023-05-04T01:51:00.568Z,2083.00
2023-05-04T01:52:00.613Z,2076.00
2023-05-04T01:53:00.610Z,2058.00
2023-05-04T01:54:00.650Z,2070.00
2023-05-04T01:55:00.650Z,2059.00
2023-05-04T01:56:00.670Z,2056.00
2023-05-04T01:57:00.774Z,2076.00
2023-05-04T01:58:00.728Z,2063.00
2023-05-04T01:59:00.747Z,2060.00
2023-05-04T02:00:00.765Z,2061.00
2023-05-04T02:01:00.807Z,2067.00
2023-05-04T02:02:00.931Z,2063.00
2023-05-04T02:03:00.932Z,2068.00
2023-05-04T02:04:01.072Z,2046.00
2023-05-04T02:05:00.920Z,2061.00
2023-05-04T02:06:00.957Z,2064.00
2023-05-04T02:07:00.989Z,2041.00
2023-05-04T02:08:01.064Z,2049.00
2023-05-04T02:09:01.100Z,2042.00
2023-05-04T02:10:01.170Z,2053.00
2023-05-04T02:11:01.212Z,2048.00
2023-05-04T02:12:01.268Z,2034.00
2023-05-04T02:13:01.470Z,2033.00
2023-05-04T02:14:01.346Z,2012.00
2023-05-04T02:15:01.364Z,2043.00
2023-05-04T02:16:01.404Z,2044.00
2023-05-04T02:17:01.440Z,2060.00
2023-05-04T02:18:01.469Z,2039.00
2023-05-04T02:19:01.452Z,2029.00
2023-05-04T02:20:01.530Z,2021.00
2023-05-04T02:21:01.498Z,2008.00
2023-05-04T02:22:01.518Z,1992.00
2023-05-04T02:23:01.591Z,2011.00
2023-05-04T02:24:01.577Z,1986.00
2023-05-04T02:25:01.618Z,1993.00
2023-05-04T02:26:01.647Z,2004.00
2023-05-04T02:27:01.670Z,2011.00
2023-05-04T02:28:01.706Z,2006.00
2023-05-04T02:29:01.720Z,2004.00
2023-05-04T02:30:01.899Z,2000.00
2023-05-04T02:31:01.807Z,2000.00
2023-05-04T02:32:01.876Z,1994.00
2023-05-04T02:33:01.930Z,2000.00
2023-05-04T02:34:01.926Z,1996.00
2023-05-04T02:35:01.997Z,1974.00
2023-05-04T02:36:02.067Z,2005.00
2023-05-04T02:37:02.106Z,1995.00
2023-05-04T02:38:02.128Z,1977.00
2023-05-04T02:39:02.192Z,1997.00
2023-05-04T02:40:02.399Z,1976.00
2023-05-04T02:41:02.327Z,2004.00
2023-05-04T02:42:02.359Z,1971.00
2023-05-04T02:43:02.420Z,1989.00
2023-05-04T02:44:02.492Z,1992.00
2023-05-04T02:45:02.550Z,1969.00
2023-05-04T02:46:02.700Z,1971.00
2023-05-04T02:47:02.676Z,1966.00
2023-05-04T02:48:02.808Z,1987.00
2023-05-04T02:49:02.769Z,1957.00
2023-05-04T02:50:03.314Z,1949.00
2023-05-04T02:51:02.888Z,1940.00
2023-05-04T02:52:02.941Z,1948.00
2023-05-04T02:53:02.995Z,1949.00
2023-05-04T02:54:03.051Z,1956.00
2023-05-04T02:55:03.091Z,1954.00
2023-05-04T02:56:03.101Z,1955.00
2023-05-04T02:57:03.155Z,1938.00
2023-05-04T02:58:03.162Z,1956.00
2023-05-04T02:59:03.202Z,1950.00
2023-05-04T03:00:03.324Z,1972.00
2023-05-04T03:01:03.271Z,1957.00
2023-05-04T03:02:03.312Z,1947.00
2023-05-04T03:03:03.419Z,1941.00
2023-05-04T03:04:03.474Z,1948.00
2023-05-04T03:05:03.434Z,1943.00
2023-05-04T03:06:03.465Z,1961.00
2023-05-04T03:07:03.508Z,1939.00
2023-05-04T03:08:03.527Z,1936.00
2023-05-04T03:09:03.562Z,1947.00
2023-05-04T03:10:03.676Z,1938.00
2023-05-04T03:11:03.640Z,1939.00
2023-05-04T03:12:03.668Z,1930.00
2023-05-04T03:13:03.756Z,1912.00
2023-05-04T03:14:03.713Z,1922.00
2023-05-04T03:15:03.751Z,1905.00
2023-05-04T03:16:03.848Z,1928.00
2023-05-04T03:17:03.914Z,1913.00
2023-05-04T03:18:03.980Z,1889.00
2023-05-04T03:19:03.996Z,1911.00
2023-05-04T03:20:04.256Z,1899.00
2023-05-04T03:21:04.125Z,1919.00
2023-05-04T03:22:04.178Z,1913.00
2023-05-04T03:23:04.223Z,1909.00
2023-05-04T03:24:04.249Z,1906.00
2023-05-04T03:25:04.267Z,1889.00
2023-05-04T03:26:04.291Z,1902.00
2023-05-04T03:27:04.355Z,1905.00
2023-05-04T03:28:04.352Z,1907.00
2023-05-04T03:29:04.390Z,1887.00
2023-05-04T03:30:04.533Z,1892.00
2023-05-04T03:31:04.464Z,1882.00
2023-05-04T03:32:04.538Z,1896.00
2023-05-04T03:33:04.583Z,1897.00
2023-05-04T03:34:04.597Z,1906.00
2023-05-04T03:35:04.653Z,1891.00
2023-05-04T03:36:04.732Z,1889.00
2023-05-04T03:37:04.778Z,1887.00
2023-05-04T03:38:04.767Z,1870.00
2023-05-04T03:39:04.813Z,1890.00
2023-05-04T03:40:05.078Z,1890.00
2023-05-04T03:41:04.890Z,1887.00
2023-05-04T03:42:04.969Z,1885.00
2023-05-04T03:43:05.012Z,1906.00
2023-05-04T03:44:05.058Z,1874.00
2023-05-04T03:45:05.117Z,1889.00
2023-05-04T03:46:05.241Z,1900.00
2023-05-04T03:47:05.258Z,1874.00
2023-05-04T03:48:05.426Z,1880.00
2023-05-04T03:49:05.379Z,1887.00
2023-05-04T03:50:05.612Z,1898.00
2023-05-04T03:51:05.536Z,1898.00
2023-05-04T03:52:05.538Z,1862.00
2023-05-04T03:53:05.559Z,1884.00
2023-05-04T03:54:05.577Z,1844.00
2023-05-04T03:55:05.608Z,1849.00
2023-05-04T03:56:05.623Z,1871.00
2023-05-04T03:57:05.664Z,1886.00
2023-05-04T03:58:05.682Z,1867.00
2023-05-04T03:59:05.718Z,1869.00
2023-05-04T04:00:05.882Z,1871.00
2023-05-04T04:01:05.782Z,1848.00
2023-05-04T04:02:05.830Z,1849.00
2023-05-04T04:03:05.911Z,1849.00
2023-05-04T04:04:06.061Z,1858.00
2023-05-04T04:05:05.888Z,1867.00
2023-05-04T04:06:05.936Z,1865.00
2023-05-04T04:07:05.974Z,1853.00
2023-05-04T04:08:05.985Z,1840.00
2023-05-04T04:09:06.001Z,1839.00
2023-05-04T04:10:06.320Z,1846.00
2023-05-04T04:11:06.063Z,1864.00
2023-05-04T04:12:06.117Z,1843.00
2023-05-04T04:13:06.186Z,1856.00
2023-05-04T04:14:06.260Z,1837.00
2023-05-04T04:15:06.189Z,1848.00
2023-05-04T04:16:06.267Z,1849.00
2023-05-04T04:17:06.280Z,1856.00
2023-05-04T04:18:06.381Z,1841.00
2023-05-04T04:19:06.325Z,1832.00
2023-05-04T04:20:06.593Z,1839.00
2023-05-04T04:21:06.395Z,1834.00
2023-05-04T04:22:06.445Z,1847.00
2023-05-04T04:23:06.456Z,1848.00
2023-05-04T04:24:06.481Z,1852.00
2023-05-04T04:25:06.528Z,1849.00
2023-05-04T04:26:06.528Z,1840.00
2023-05-04T04:27:06.581Z,1839.00
2023-05-04T04:28:06.599Z,1834.00
2023-05-04T04:29:06.619Z,1819.00
2023-05-04T04:30:06.828Z,1805.00
2023-05-04T04:31:06.691Z,1807.00
2023-05-04T04:32:06.727Z,1810.00
2023-05-04T04:33:06.824Z,1823.00
2023-05-04T04:34:06.802Z,1820.00
2023-05-04T04:35:06.856Z,1810.00
2023-05-04T04:36:06.878Z,1798.00
2023-05-04T04:37:06.918Z,1801.00
2023-05-04T04:38:06.962Z,1807.00
2023-05-04T04:39:06.963Z,1785.00
2023-05-04T04:40:07.116Z,1781.00
2023-05-04T04:41:06.982Z,1796.00
2023-05-04T04:42:07.017Z,1802.00
2023-05-04T04:43:07.105Z,1804.00
2023-05-04T04:44:07.086Z,1790.00
2023-05-04T04:45:07.145Z,1812.00
2023-05-04T04:46:07.155Z,1833.00
2023-05-04T04:47:07.219Z,1804.00
2023-05-04T04:48:07.286Z,1811.00
2023-05-04T04:49:07.238Z,1789.00
2023-05-04T04:50:07.564Z,1809.00
2023-05-04T04:51:07.371Z,1815.00
2023-05-04T04:52:07.437Z,1807.00
2023-05-04T04:53:07.492Z,1824.00
2023-05-04T04:54:07.557Z,1817.00
2023-05-04T04:55:07.597Z,1827.00
2023-05-04T04:56:07.660Z,1816.00
2023-05-04T04:57:07.706Z,1810.00
2023-05-04T04:58:07.701Z,1811.00
2023-05-04T04:59:07.728Z,1792.00
2023-05-04T05:00:07.864Z,1808.00
2023-05-04T05:01:07.843Z,1781.00
2023-05-04T05:02:07.857Z,1735.00
2023-05-04T05:03:07.919Z,1722.00
2023-05-04T05:04:07.880Z,1686.00
2023-05-04T05:05:08.044Z,1673.00
2023-05-04T05:06:07.904Z,1656.00
2023-05-04T05:07:07.920Z,1645.00
2023-05-04T05:08:07.960Z,1625.00
2023-05-04T05:09:08.017Z,1639.00
2023-05-04T05:10:08.308Z,1668.00
2023-05-04T05:11:08.109Z,1669.00
2023-05-04T05:12:08.137Z,1609.00
2023-05-04T05:13:08.209Z,1639.00
2023-05-04T05:14:08.143Z,1664.00
2023-05-04T05:15:08.201Z,1637.00
2023-05-04T05:16:08.258Z,1637.00
2023-05-04T05:17:08.374Z,1638.00
2023-05-04T05:18:08.327Z,1665.00
2023-05-04T05:19:08.318Z,1668.00
2023-05-04T05:20:08.325Z,1684.00
2023-05-04T05:21:08.362Z,1693.00
2023-05-04T05:22:08.425Z,1689.00
2023-05-04T05:23:08.436Z,1711.00
2023-05-04T05:24:08.457Z,1708.00
2023-05-04T05:25:08.509Z,1686.00
2023-05-04T05:26:08.529Z,1680.00
2023-05-04T05:27:09.036Z,1679.00
2023-05-04T05:28:08.698Z,1683.00
2023-05-04T05:29:08.734Z,1727.00
2023-05-04T05:30:08.816Z,1764.00
2023-05-04T05:31:08.840Z,1788.00
2023-05-04T05:32:08.872Z,1804.00
2023-05-04T05:33:08.939Z,1884.00
2023-05-04T05:34:09.012Z,1903.00
2023-05-04T05:35:08.956Z,1928.00
2023-05-04T05:36:09.008Z,1960.00
2023-05-04T05:37:09.534Z,2015.00
2023-05-04T05:38:09.224Z,2044.00
2023-05-04T05:39:09.134Z,2059.00
2023-05-04T05:40:09.168Z,2079.00
2023-05-04T05:41:09.191Z,2068.00
2023-05-04T05:42:09.552Z,2100.00
2023-05-04T05:43:09.188Z,2145.00
2023-05-04T05:44:10.164Z,2210.00
2023-05-04T05:45:09.264Z,2262.00
2023-05-04T05:46:09.309Z,2332.00
2023-05-04T05:47:09.324Z,2410.00
2023-05-04T05:48:09.424Z,2452.00
2023-05-04T05:49:09.370Z,2493.00
2023-05-04T05:50:09.426Z,2555.00
2023-05-04T05:51:09.436Z,3092.00
2023-05-04T05:52:09.538Z,3314.00
2023-05-04T05:53:09.535Z,3210.00
2023-05-04T05:54:09.548Z,3194.00
2023-05-04T05:55:09.563Z,3250.00
2023-05-04T05:56:09.573Z,3143.00
2023-05-04T05:57:09.570Z,3101.00
2023-05-04T05:58:09.555Z,3028.00
2023-05-04T05:59:09.560Z,3014.00
2023-05-04T06:00:09.540Z,2976.00
2023-05-04T06:01:09.556Z,2962.00
2023-05-04T06:02:09.605Z,2950.00
2023-05-04T06:03:09.622Z,3064.00
2023-05-04T06:04:09.634Z,3202.00
2023-05-04T06:05:09.582Z,3356.00
2023-05-04T06:06:09.609Z,3477.00
2023-05-04T06:07:09.664Z,3535.00
2023-05-04T06:08:09.659Z,3668.00
2023-05-04T06:09:09.725Z,3932.00
2023-05-04T06:10:09.796Z,3892.00
2023-05-04T06:11:09.886Z,3850.00
2023-05-04T06:12:09.928Z,3936.00
2023-05-04T06:13:09.992Z,3930.00
2023-05-04T06:14:10.043Z,3952.00
2023-05-04T06:15:10.120Z,3897.00
2023-05-04T06:16:10.207Z,3881.00
2023-05-04T06:17:10.302Z,3972.00
2023-05-04T06:18:10.333Z,4111.00
2023-05-04T06:19:10.314Z,4103.00
2023-05-04T06:20:10.353Z,4080.00
2023-05-04T06:21:10.425Z,3975.00
2023-05-04T06:22:10.509Z,3843.00
2023-05-04T06:23:10.532Z,3741.00
2023-05-04T06:24:10.588Z,3634.00
2023-05-04T06:25:10.668Z,3504.00
2023-05-04T06:26:10.687Z,3394.00
2023-05-04T06:27:10.722Z,3326.00
2023-05-04T06:28:11.059Z,3291.00
2023-05-04T06:29:10.765Z,3226.00
2023-05-04T06:30:10.778Z,3099.00
2023-05-04T06:31:10.912Z,3128.00
2023-05-04T06:32:11.079Z,3104.00
2023-05-04T06:33:11.129Z,2812.00
2023-05-04T06:34:10.904Z,2809.00
2023-05-04T06:35:10.947Z,2844.00
2023-05-04T06:36:10.980Z,2853.00
2023-05-04T06:37:11.536Z,2835.00
2023-05-04T06:38:11.543Z,2837.00
2023-05-04T06:39:11.053Z,2823.00
2023-05-04T06:40:11.286Z,2821.00
2023-05-04T06:41:11.132Z,2813.00
2023-05-04T06:42:11.162Z,2821.00
2023-05-04T06:43:11.217Z,2807.00
2023-05-04T06:44:11.225Z,2824.00
2023-05-04T06:45:11.292Z,2802.00
2023-05-04T06:46:11.382Z,2789.00
2023-05-04T06:47:11.403Z,2770.00
2023-05-04T06:48:11.501Z,2757.00
2023-05-04T06:49:11.520Z,2733.00
2023-05-04T06:50:11.566Z,2717.00
2023-05-04T06:51:11.575Z,2686.00
2023-05-04T06:52:11.587Z,2689.00
2023-05-04T06:53:12.082Z,2663.00
2023-05-04T06:54:11.614Z,2646.00
2023-05-04T06:55:11.640Z,2635.00
2023-05-04T06:56:11.644Z,2619.00
2023-05-04T06:57:11.696Z,2606.00
2023-05-04T06:58:11.713Z,2587.00
2023-05-04T06:59:11.723Z,2564.00
2023-05-04T07:00:11.708Z,2541.00
2023-05-04T07:01:11.755Z,2511.00
2023-05-04T07:02:11.739Z,2494.00
2023-05-04T07:03:11.787Z,2499.00
2023-05-04T07:04:11.791Z,2492.00
2023-05-04T07:05:11.846Z,2476.00
2023-05-04T07:06:11.916Z,2463.00
2023-05-04T07:07:11.998Z,2442.00
2023-05-04T07:08:12.027Z,2423.00
2023-05-04T07:09:12.080Z,2433.00
2023-05-04T07:10:12.100Z,2413.00
2023-05-04T07:11:12.110Z,2391.00
2023-05-04T07:12:12.152Z,2388.00
2023-05-04T07:13:12.684Z,2388.00
2023-05-04T07:14:12.277Z,2368.00
2023-05-04T07:15:12.221Z,2374.00
2023-05-04T07:16:12.256Z,2375.00
2023-05-04T07:17:12.284Z,2356.00
2023-05-04T07:18:12.340Z,2355.00
2023-05-04T07:19:12.441Z,2344.00
2023-05-04T07:20:12.463Z,2343.00
2023-05-04T07:22:12.381Z,2328.00
2023-05-04T07:23:12.372Z,2329.00
2023-05-04T07:24:12.352Z,2330.00
2023-05-04T07:25:12.329Z,2302.00
2023-05-04T07:26:12.353Z,2279.00
2023-05-04T07:27:12.607Z,2281.00
2023-05-04T07:28:12.344Z,2258.00
2023-05-04T07:29:12.317Z,2298.00
2023-05-04T07:30:12.302Z,2288.00
2023-05-04T07:31:12.329Z,2315.00
2023-05-04T07:32:12.344Z,2370.00
2023-05-04T07:33:12.610Z,2425.00
2023-05-04T07:34:12.399Z,2378.00
2023-05-04T07:35:12.399Z,2380.00
2023-05-04T07:36:12.404Z,2422.00
2023-05-04T07:37:12.268Z,2441.00
2023-05-04T07:38:12.541Z,2438.00
2023-05-04T07:39:12.258Z,2380.00
2023-05-04T07:40:12.294Z,2307.00
2023-05-04T07:41:12.250Z,2096.00
2023-05-04T07:42:12.219Z,1935.00
2023-05-04T07:43:12.560Z,1871.00
2023-05-04T07:44:12.337Z,1810.00
2023-05-04T07:45:12.195Z,1922.00
2023-05-04T07:46:12.187Z,1944.00
2023-05-04T07:47:12.194Z,2041.00
2023-05-04T07:48:12.618Z,2087.00
2023-05-04T07:49:12.182Z,2005.00
2023-05-04T07:50:12.169Z,1989.00
2023-05-04T07:51:12.163Z,1810.00
2023-05-04T07:52:12.179Z,1857.00
2023-05-04T07:53:12.554Z,1959.00
2023-05-04T07:54:12.149Z,1988.00
2023-05-04T07:55:12.147Z,1757.00
2023-05-04T07:56:12.132Z,1855.00
2023-05-04T07:57:12.231Z,1848.00
2023-05-04T07:58:12.670Z,1892.00
2023-05-04T07:59:12.111Z,1919.00
2023-05-04T08:00:12.097Z,1795.00
2023-05-04T08:01:12.235Z,1683.00
2023-05-04T08:02:12.173Z,1643.00
2023-05-04T08:03:12.605Z,1785.00
2023-05-04T08:04:12.161Z,1817.00
2023-05-04T08:05:12.230Z,1781.00
2023-05-04T08:06:12.313Z,1733.00
2023-05-04T08:07:12.384Z,1763.00
2023-05-04T08:08:12.421Z,1787.00
2023-05-04T08:09:12.515Z,1813.00
2023-05-04T08:10:12.559Z,1794.00
2023-05-04T08:11:20.015Z,1802.00
2023-05-04T08:12:13.599Z,1803.00
2023-05-04T08:13:12.663Z,1778.00
2023-05-04T08:14:12.610Z,1749.00
2023-05-04T08:15:12.567Z,1760.00
2023-05-04T08:16:12.693Z,1755.00
2023-05-04T08:17:12.546Z,1780.00
2023-05-04T08:18:12.560Z,1805.00
2023-05-04T08:19:12.636Z,1767.00
2023-05-04T08:20:12.529Z,1636.00
2023-05-04T08:21:12.514Z,1683.00
2023-05-04T08:22:12.521Z,1361.00
2023-05-04T08:23:12.603Z,1273.00
2023-05-04T08:24:12.682Z,1327.00
2023-05-04T08:25:12.499Z,1514.00
2023-05-04T08:26:12.484Z,1670.00
2023-05-04T08:27:12.497Z,1856.00
2023-05-04T08:28:12.504Z,1919.00
2023-05-04T08:29:12.481Z,1779.00
2023-05-04T08:30:12.563Z,1747.00
2023-05-04T08:31:12.605Z,1775.00
2023-05-04T08:32:12.593Z,1686.00
2023-05-04T08:33:12.845Z,1687.00
2023-05-04T08:34:12.719Z,1719.00
2023-05-04T08:35:12.684Z,1627.00
2023-05-04T08:36:12.710Z,1543.00
2023-05-04T08:37:12.729Z,1109.00
2023-05-04T08:38:13.108Z,1052.00
2023-05-04T08:39:12.776Z,1131.00
2023-05-04T08:40:12.808Z,1288.00
2023-05-04T08:41:12.854Z,1469.00
2023-05-04T08:42:12.855Z,1553.00
2023-05-04T08:43:13.331Z,1628.00
2023-05-04T08:44:12.884Z,1931.00
2023-05-04T08:45:12.881Z,2009.00
2023-05-04T08:46:12.918Z,2024.00
2023-05-04T08:47:12.892Z,1935.00
2023-05-04T08:48:12.921Z,1795.00
2023-05-04T08:49:12.928Z,1851.00
2023-05-04T08:50:12.989Z,1810.00
2023-05-04T08:51:13.053Z,1930.00
2023-05-04T08:52:13.072Z,1993.00
2023-05-04T08:53:13.164Z,2024.00
2023-05-04T08:54:13.224Z,2022.00
2023-05-04T08:55:13.260Z,2074.00
2023-05-04T08:56:13.281Z,2072.00
2023-05-04T08:57:13.291Z,1854.00
2023-05-04T08:58:13.320Z,1875.00
2023-05-04T08:59:13.293Z,1967.00
2023-05-04T09:00:13.296Z,2010.00
2023-05-04T09:01:13.409Z,1999.00
2023-05-04T09:02:13.471Z,1994.00
2023-05-04T09:03:13.717Z,1964.00
2023-05-04T09:04:13.476Z,1789.00
2023-05-04T09:05:13.503Z,1827.00
2023-05-04T09:06:13.498Z,1876.00
2023-05-04T09:07:13.498Z,1853.00
2023-05-04T09:08:13.619Z,1789.00
2023-05-04T09:09:13.553Z,1826.00
2023-05-04T09:10:13.626Z,1490.00
2023-05-04T09:11:13.689Z,1325.00
2023-05-04T09:12:13.790Z,1375.00
2023-05-04T09:13:13.888Z,1373.00
2023-05-04T09:14:13.766Z,1422.00
2023-05-04T09:15:13.835Z,1503.00
2023-05-04T09:16:14.809Z,1476.00
2023-05-04T09:17:13.978Z,1506.00
2023-05-04T09:18:14.229Z,1492.00
2023-05-04T09:19:13.945Z,1478.00
2023-05-04T09:20:13.948Z,1506.00
2023-05-04T09:21:13.956Z,1492.00
2023-05-04T09:22:14.005Z,1468.00
2023-05-04T09:23:14.284Z,1487.00
2023-05-04T09:24:14.087Z,1550.00
2023-05-04T09:25:14.114Z,1550.00
2023-05-04T09:26:14.346Z,1454.00
2023-05-04T09:27:14.316Z,1355.00
2023-05-04T09:28:14.264Z,1434.00
2023-05-04T09:29:14.282Z,1266.00
2023-05-04T09:30:14.351Z,1360.00
2023-05-04T09:31:14.453Z,1424.00
2023-05-04T09:32:14.531Z,1428.00
2023-05-04T09:33:14.635Z,1499.00
2023-05-04T09:34:14.610Z,1400.00
2023-05-04T09:35:25.312Z,1364.00
2023-05-04T09:36:15.616Z,1301.00
2023-05-04T09:37:14.632Z,1250.00
2023-05-04T09:38:14.594Z,1197.00
2023-05-04T09:39:14.574Z,1165.00
2023-05-04T09:40:14.571Z,1241.00
2023-05-04T09:41:14.571Z,1247.00
2023-05-04T09:42:14.554Z,1215.00
2023-05-04T09:43:14.539Z,1196.00
2023-05-04T09:44:14.556Z,1202.00
2023-05-04T09:45:14.564Z,1161.00
2023-05-04T09:46:14.562Z,1113.00
2023-05-04T09:47:14.524Z,1148.00
2023-05-04T09:48:14.586Z,1212.00
2023-05-04T09:49:14.664Z,1206.00
2023-05-04T09:50:15.520Z,1194.00
2023-05-04T09:51:14.790Z,1205.00
2023-05-04T09:52:14.840Z,1194.00
2023-05-04T09:53:15.119Z,1180.00
2023-05-04T09:54:15.168Z,1197.00
2023-05-04T09:55:14.891Z,1191.00
2023-05-04T09:56:15.040Z,1107.00
2023-05-04T09:57:14.956Z,1176.00
2023-05-04T09:58:15.106Z,1176.00
2023-05-04T09:59:15.162Z,1175.00
2023-05-04T10:00:15.017Z,1242.00
2023-05-04T10:01:15.085Z,1162.00
2023-05-04T10:02:22.822Z,1142.00
2023-05-04T10:03:16.128Z,1144.00
2023-05-04T10:04:15.080Z,1144.00
2023-05-04T10:05:15.072Z,1105.00
2023-05-04T10:06:15.074Z,1090.00
2023-05-04T10:07:15.032Z,1053.00
2023-05-04T10:08:15.125Z,988.00
2023-05-04T10:09:15.047Z,1054.00
2023-05-04T10:10:15.065Z,1010.00
2023-05-04T10:11:15.043Z,957.00
2023-05-04T10:12:15.055Z,851.00
2023-05-04T10:13:15.093Z,823.00
2023-05-04T10:14:15.073Z,796.00
2023-05-04T10:15:14.980Z,677.00
2023-05-04T10:16:15.050Z,649.00
2023-05-04T10:17:15.033Z,724.00
2023-05-04T10:18:15.092Z,651.00
2023-05-04T10:19:15.079Z,661.00
2023-05-04T10:20:15.073Z,643.00
2023-05-04T10:21:15.087Z,635.00
2023-05-04T10:22:15.167Z,641.00
2023-05-04T10:23:15.118Z,624.00
2023-05-04T10:24:15.744Z,623.00
2023-05-04T10:25:15.130Z,623.00
2023-05-04T10:26:15.122Z,630.00
2023-05-04T10:27:15.104Z,594.00
2023-05-04T10:28:15.127Z,609.00
2023-05-04T10:29:15.113Z,627.00
2023-05-04T10:30:15.146Z,654.00
2023-05-04T10:31:15.255Z,713.00
2023-05-04T10:32:15.242Z,630.00
2023-05-04T10:33:15.282Z,710.00
2023-05-04T10:34:15.622Z,712.00
2023-05-04T10:35:15.375Z,662.00
2023-05-04T10:36:15.451Z,796.00
2023-05-04T10:37:15.473Z,670.00
2023-05-04T10:38:15.487Z,697.00
2023-05-04T10:39:15.452Z,741.00
2023-05-04T10:40:15.459Z,864.00
2023-05-04T10:41:15.482Z,900.00
2023-05-04T10:42:15.522Z,932.00
2023-05-04T10:43:15.580Z,994.00
2023-05-04T10:44:15.619Z,1011.00
2023-05-04T10:45:15.666Z,1028.00
2023-05-04T10:46:15.741Z,1039.00
2023-05-04T10:47:15.765Z,1068.00
2023-05-04T10:48:15.814Z,1083.00
2023-05-04T10:49:15.880Z,1109.00
2023-05-04T10:50:15.986Z,1104.00
2023-05-04T10:51:15.924Z,1123.00
2023-05-04T10:52:15.913Z,1123.00
2023-05-04T10:53:15.903Z,1158.00
2023-05-04T10:54:16.121Z,1205.00
2023-05-04T10:55:15.955Z,1186.00
2023-05-04T10:56:15.938Z,1181.00
2023-05-04T10:57:15.999Z,1197.00
2023-05-04T10:58:16.069Z,1202.00
2023-05-04T10:59:16.202Z,1197.00
2023-05-04T11:00:16.142Z,1210.00
2023-05-04T11:01:16.218Z,1213.00
2023-05-04T11:02:16.241Z,1201.00
2023-05-04T11:03:16.390Z,1222.00
2023-05-04T11:04:16.688Z,1219.00
2023-05-04T11:05:16.373Z,1237.00
2023-05-04T11:06:16.404Z,1270.00
2023-05-04T11:07:16.498Z,1274.00
2023-05-04T11:08:16.546Z,1279.00
2023-05-04T11:09:16.604Z,1249.00
2023-05-04T11:10:16.726Z,1250.00
2023-05-04T11:11:16.708Z,1274.00
2023-05-04T11:12:16.744Z,1278.00
2023-05-04T11:13:16.764Z,1252.00
2023-05-04T11:14:16.834Z,1259.00
2023-05-04T11:15:16.746Z,1250.00
2023-05-04T11:16:16.922Z,1278.00
2023-05-04T11:18:19.024Z,1304.00
2023-05-04T11:19:16.877Z,1305.00
2023-05-04T11:20:16.730Z,1310.00
2023-05-04T11:21:16.859Z,1312.00
2023-05-04T11:22:16.821Z,1322.00
2023-05-04T11:23:16.878Z,1317.00
2023-05-04T11:24:16.818Z,1264.00
2023-05-04T11:25:16.729Z,1292.00
2023-05-04T11:26:16.915Z,1279.00
2023-05-04T11:27:16.838Z,1239.00
2023-05-04T11:28:16.760Z,1253.00
2023-05-04T11:29:16.754Z,1284.00
2023-05-04T11:30:16.938Z,1277.00
2023-05-04T11:31:16.827Z,1254.00
2023-05-04T11:32:17.009Z,1256.00
2023-05-04T11:33:16.943Z,1266.00
2023-05-04T11:34:16.972Z,1253.00
2023-05-04T11:35:17.148Z,1236.00
2023-05-04T11:36:17.104Z,1242.00
2023-05-04T11:37:17.216Z,1221.00
2023-05-04T11:38:17.344Z,1223.00
2023-05-04T11:39:17.229Z,1190.00
2023-05-04T11:40:17.250Z,1191.00
2023-05-04T11:41:17.350Z,1201.00
2023-05-04T11:42:17.376Z,1173.00
2023-05-04T11:43:17.450Z,1152.00
2023-05-04T11:44:17.498Z,1182.00
2023-05-04T11:45:17.524Z,1217.00
2023-05-04T11:46:17.595Z,1233.00
2023-05-04T11:47:17.603Z,1208.00
2023-05-04T11:48:18.779Z,1220.00
2023-05-04T11:49:17.718Z,1211.00
2023-05-04T11:50:17.771Z,1201.00
2023-05-04T11:51:17.801Z,1221.00
2023-05-04T11:52:17.804Z,1253.00
2023-05-04T11:53:17.809Z,1225.00
2023-05-04T11:54:17.853Z,1211.00
2023-05-04T11:55:17.910Z,1185.00
2023-05-04T11:56:17.954Z,1201.00
2023-05-04T11:57:17.988Z,1199.00
2023-05-04T11:58:18.006Z,1181.00
2023-05-04T11:59:18.028Z,1177.00
2023-05-04T12:00:18.038Z,1202.00
2023-05-04T12:01:18.049Z,1185.00
2023-05-04T12:02:18.101Z,1173.00
2023-05-04T12:03:18.178Z,1164.00
2023-05-04T12:04:18.117Z,1139.00
2023-05-04T12:05:18.121Z,1141.00
2023-05-04T12:06:18.126Z,1145.00
2023-05-04T12:07:18.140Z,1148.00
2023-05-04T12:08:18.163Z,1141.00
2023-05-04T12:09:18.256Z,1144.00